Time;durP1;ratioP1;P1;durP2;ratioP2;P2;SDS_P1;SDS_P2;PMS_P1;PMS_P2;Temp;Humidity;BMP_temperature;BMP_pressure;BME280_temperature;BME280_humidity;BME280_pressure;Samples;Min_cycle;Max_cycle;Signal;HPM_P1;HPM_P2
2022/10/16 00:02:06;;;;;;;1.10;0.90;;;18.30;99.90;;;;;;5002238;28;20229;-71
2022/10/16 00:04:31;;;;;;;2.08;1.08;;;18.30;99.90;;;;;;5034466;28;20183;-71
2022/10/16 00:06:57;;;;;;;1.00;0.90;;;18.30;99.90;;;;;;5033728;28;20217;-71
2022/10/16 00:09:23;;;;;;;0.90;0.90;;;18.30;99.90;;;;;;5017559;28;20535;-72
2022/10/16 00:11:48;;;;;;;1.10;1.00;;;18.30;99.90;;;;;;5033919;28;20180;-71
2022/10/16 00:14:15;;;;;;;1.65;1.00;;;18.30;99.90;;;;;;5017370;28;20184;-72
2022/10/16 00:16:42;;;;;;;1.08;1.00;;;18.30;99.90;;;;;;5033590;28;20227;-71
2022/10/16 00:19:09;;;;;;;2.00;1.08;;;18.30;99.90;;;;;;5017571;28;20183;-71
2022/10/16 00:21:34;;;;;;;0.88;0.88;;;18.30;99.90;;;;;;5033786;28;20180;-71
2022/10/16 00:24:08;;;;;;;0.80;0.77;;;18.30;99.90;;;;;;5017509;28;20176;-71
2022/10/16 00:26:36;;;;;;;0.98;0.90;;;18.30;99.90;;;;;;5033526;28;20237;-72
2022/10/16 00:29:03;;;;;;;1.48;1.08;;;18.30;99.90;;;;;;5033519;28;20398;-71
2022/10/16 00:31:30;;;;;;;0.90;0.80;;;18.30;99.90;;;;;;5033554;28;20176;-71
2022/10/16 00:33:56;;;;;;;0.82;0.77;;;18.30;99.90;;;;;;5017064;28;20226;-71
2022/10/16 00:36:25;;;;;;;1.33;0.98;;;18.30;99.90;;;;;;5033527;28;20187;-71
2022/10/16 00:38:57;;;;;;;1.75;1.00;;;18.30;99.90;;;;;;5016913;28;20238;-72
2022/10/16 00:41:25;;;;;;;1.45;0.90;;;18.30;99.90;;;;;;5034614;28;20180;-71
2022/10/16 00:43:57;;;;;;;1.02;0.93;;;18.30;99.90;;;;;;5016889;28;20210;-71
2022/10/16 00:46:43;;;;;;;1.20;0.90;;;18.30;99.90;;;;;;5034743;28;20198;-72
2022/10/16 00:49:19;;;;;;;1.08;0.85;;;18.30;99.90;;;;;;5016825;28;20179;-71
2022/10/16 00:51:50;;;;;;;0.80;0.80;;;18.30;99.90;;;;;;5016472;28;20183;-72
2022/10/16 00:54:22;;;;;;;0.95;0.85;;;18.30;99.90;;;;;;5016736;28;20195;-71
2022/10/16 00:56:50;;;;;;;2.15;0.85;;;18.30;99.90;;;;;;5033988;28;20229;-71
2022/10/16 00:59:37;;;;;;;1.45;0.90;;;18.30;99.90;;;;;;5016659;28;20187;-72
2022/10/16 01:02:06;;;;;;;1.13;0.93;;;18.30;99.90;;;;;;5016490;28;20181;-71
2022/10/16 01:04:46;;;;;;;1.17;0.98;;;18.30;99.90;;;;;;5016480;28;20183;-71
2022/10/16 01:07:51;;;;;;;0.93;0.82;;;18.30;99.90;;;;;;5015690;28;20222;-71
2022/10/16 01:10:53;;;;;;;0.70;0.70;;;18.30;99.90;;;;;;5016473;28;20183;-72
2022/10/16 01:13:31;;;;;;;0.70;0.70;;;18.20;99.90;;;;;;4999928;28;20234;-72
2022/10/16 01:16:34;;;;;;;1.10;1.00;;;18.30;99.90;;;;;;5032919;28;20251;-71
2022/10/16 01:19:56;;;;;;;1.20;1.08;;;18.30;99.90;;;;;;4999696;28;20179;-71
2022/10/16 01:22:36;;;;;;;1.45;1.00;;;18.30;99.90;;;;;;5007436;28;20235;-71
2022/10/16 01:25:14;;;;;;;0.70;0.70;;;18.30;99.90;;;;;;5016090;28;20179;-72
2022/10/16 01:27:44;;;;;;;1.17;0.88;;;18.20;99.90;;;;;;4999419;28;20299;-71
2022/10/16 01:30:27;;;;;;;0.80;0.80;;;18.30;99.90;;;;;;5016073;28;20179;-71
2022/10/16 01:33:08;;;;;;;1.30;1.08;;;18.30;99.90;;;;;;4999922;28;20183;-71
2022/10/16 01:35:44;;;;;;;0.73;0.73;;;18.30;99.90;;;;;;5015855;28;20678;-71
2022/10/16 01:38:33;;;;;;;0.80;0.80;;;18.20;99.90;;;;;;4999603;28;20203;-71
2022/10/16 01:41:08;;;;;;;1.20;1.10;;;18.30;99.90;;;;;;4999778;28;20832;-71
2022/10/16 01:43:50;;;;;;;0.80;0.80;;;18.30;99.90;;;;;;5015913;28;20665;-72
2022/10/16 01:46:21;;;;;;;0.90;0.88;;;18.20;99.90;;;;;;5015896;28;20211;-72
2022/10/16 01:48:50;;;;;;;1.58;0.90;;;18.30;99.90;;;;;;5015510;28;20218;-71
2022/10/16 01:51:19;;;;;;;1.10;1.00;;;18.30;99.90;;;;;;4999252;28;20180;-71
2022/10/16 01:53:52;;;;;;;1.10;0.77;;;18.30;99.90;;;;;;4999403;28;20270;-71
2022/10/16 01:56:22;;;;;;;1.05;0.95;;;18.30;99.90;;;;;;5015503;28;20210;-71
2022/10/16 01:59:09;;;;;;;1.38;0.80;;;18.20;99.90;;;;;;5015180;28;20207;-72
2022/10/16 02:01:40;;;;;;;1.00;0.85;;;18.30;99.90;;;;;;4999048;28;20187;-72
2022/10/16 02:04:27;;;;;;;0.70;0.70;;;18.20;99.90;;;;;;5015414;28;20175;-71
2022/10/16 02:06:53;;;;;;;0.70;0.70;;;18.30;99.90;;;;;;5015341;28;20288;-71
2022/10/16 02:09:19;;;;;;;0.70;0.70;;;18.30;99.90;;;;;;5015508;28;20180;-71
2022/10/16 02:11:45;;;;;;;0.68;0.68;;;18.30;99.90;;;;;;4998958;28;20183;-71
2022/10/16 02:14:11;;;;;;;0.75;0.75;;;18.30;99.90;;;;;;5013848;28;20240;-72
2022/10/16 02:16:41;;;;;;;1.05;0.82;;;18.20;99.90;;;;;;5014848;28;20175;-71
2022/10/16 02:19:18;;;;;;;1.25;0.90;;;18.30;99.90;;;;;;5014951;28;20240;-71
2022/10/16 02:22:02;;;;;;;1.77;0.90;;;18.30;99.90;;;;;;5032794;28;20179;-71
2022/10/16 02:24:43;;;;;;;0.95;0.90;;;18.20;99.90;;;;;;5015085;28;20295;-72
2022/10/16 02:27:24;;;;;;;0.80;0.80;;;18.30;99.90;;;;;;5015030;28;20219;-71
2022/10/16 02:30:01;;;;;;;1.50;0.90;;;18.30;99.90;;;;;;5031922;28;20278;-71
2022/10/16 02:32:31;;;;;;;0.70;0.70;;;18.20;99.90;;;;;;5032741;28;20164;-72
2022/10/16 02:34:59;;;;;;;1.10;0.77;;;18.30;99.90;;;;;;5031141;28;20274;-71
2022/10/16 02:37:27;;;;;;;0.68;0.68;;;18.30;99.90;;;;;;5031353;28;20203;-71
2022/10/16 02:39:56;;;;;;;0.90;0.90;;;18.20;99.90;;;;;;5014796;28;20187;-71
2022/10/16 02:42:39;;;;;;;1.50;0.80;;;18.30;99.90;;;;;;5032557;28;20179;-71
2022/10/16 02:45:08;;;;;;;0.60;0.60;;;18.20;99.90;;;;;;5014780;28;20210;-71
2022/10/16 02:47:34;;;;;;;0.85;0.75;;;18.20;99.90;;;;;;5014312;28;20211;-72
2022/10/16 02:50:00;;;;;;;0.70;0.70;;;18.20;99.90;;;;;;5032688;28;20178;-71
2022/10/16 02:52:26;;;;;;;0.85;0.80;;;18.30;99.90;;;;;;5031307;28;20180;-71
2022/10/16 02:54:51;;;;;;;0.60;0.60;;;18.30;99.90;;;;;;5031307;28;20175;-72
2022/10/16 02:57:18;;;;;;;0.85;0.70;;;18.20;99.90;;;;;;5030685;28;20230;-72
2022/10/16 02:59:44;;;;;;;1.13;0.90;;;18.20;99.90;;;;;;5031055;28;20195;-71
2022/10/16 03:02:10;;;;;;;0.90;0.90;;;18.20;99.90;;;;;;5031893;28;20183;-72
2022/10/16 03:04:36;;;;;;;0.70;0.70;;;18.30;99.90;;;;;;5031846;28;20179;-72
2022/10/16 03:07:03;;;;;;;1.05;0.90;;;18.30;99.90;;;;;;5014096;28;20247;-71
2022/10/16 03:09:28;;;;;;;0.80;0.80;;;18.20;99.90;;;;;;5031279;28;20187;-71
2022/10/16 03:11:54;;;;;;;1.30;0.80;;;18.30;99.90;;;;;;5014486;28;20187;-72
2022/10/16 03:14:20;;;;;;;0.90;0.80;;;18.30;99.90;;;;;;5014678;28;20647;-72
2022/10/16 03:16:46;;;;;;;0.80;0.80;;;18.30;99.90;;;;;;5031065;28;20187;-71
2022/10/16 03:19:11;;;;;;;0.85;0.80;;;18.20;99.90;;;;;;5030749;28;20179;-72
2022/10/16 03:21:37;;;;;;;0.80;0.80;;;18.20;99.90;;;;;;5030941;28;20175;-71
2022/10/16 03:24:03;;;;;;;0.60;0.60;;;18.30;99.90;;;;;;5014424;28;20241;-72
2022/10/16 03:26:29;;;;;;;0.80;0.80;;;18.20;99.90;;;;;;5014296;28;20302;-72
2022/10/16 03:28:55;;;;;;;1.13;0.90;;;18.20;99.90;;;;;;5014128;28;20295;-71
2022/10/16 03:31:20;;;;;;;0.60;0.60;;;18.30;99.90;;;;;;5033646;28;20245;-71
2022/10/16 03:33:46;;;;;;;0.70;0.70;;;18.30;99.90;;;;;;5035827;28;20207;-71
2022/10/16 03:36:12;;;;;;;1.33;0.70;;;18.20;99.90;;;;;;5034351;28;20242;-72
2022/10/16 03:38:38;;;;;;;0.70;0.70;;;18.30;99.90;;;;;;5034519;28;20243;-72
2022/10/16 03:41:04;;;;;;;0.85;0.85;;;18.30;99.90;;;;;;5034520;28;20183;-71
2022/10/16 03:43:29;;;;;;;0.88;0.70;;;18.30;99.90;;;;;;5017927;28;20683;-71
2022/10/16 03:45:55;;;;;;;0.70;0.70;;;18.20;99.90;;;;;;5035521;28;20215;-71
2022/10/16 03:48:21;;;;;;;0.88;0.88;;;18.20;99.90;;;;;;5050851;28;20214;-71
2022/10/16 03:50:48;;;;;;;0.82;0.82;;;18.20;99.90;;;;;;5034316;28;20179;-71
2022/10/16 03:53:15;;;;;;;1.08;0.80;;;18.20;99.90;;;;;;5034578;28;20184;-72
2022/10/16 03:55:44;;;;;;;0.70;0.70;;;18.30;99.90;;;;;;5018047;28;20183;-72
2022/10/16 03:58:11;;;;;;;0.75;0.75;;;18.20;99.90;;;;;;5017561;28;20234;-71
2022/10/16 04:00:44;;;;;;;0.70;0.70;;;18.30;99.90;;;;;;5018064;28;20194;-71
2022/10/16 04:03:11;;;;;;;0.60;0.60;;;18.20;99.90;;;;;;5009995;28;20195;-72
2022/10/16 04:05:38;;;;;;;1.02;0.80;;;18.30;99.90;;;;;;5017882;28;20203;-72
2022/10/16 04:08:04;;;;;;;1.40;1.00;;;18.20;99.90;;;;;;5017523;28;20203;-72
2022/10/16 04:10:30;;;;;;;1.00;0.90;;;18.20;99.90;;;;;;5017485;28;20697;-71
2022/10/16 04:12:55;;;;;;;1.10;0.90;;;18.20;99.90;;;;;;5034218;28;20560;-71
2022/10/16 04:15:25;;;;;;;0.80;0.80;;;18.30;99.90;;;;;;5017745;28;20176;-71
2022/10/16 04:17:53;;;;;;;0.80;0.80;;;18.20;99.90;;;;;;5033513;28;20203;-71
2022/10/16 04:20:18;;;;;;;0.50;0.50;;;18.30;99.90;;;;;;5017552;28;20175;-71
2022/10/16 04:22:45;;;;;;;0.82;0.82;;;18.20;99.90;;;;;;5017661;28;20210;-72
2022/10/16 04:25:11;;;;;;;0.93;0.88;;;18.20;99.90;;;;;;5017332;28;20193;-72
2022/10/16 04:27:38;;;;;;;0.70;0.70;;;18.20;99.90;;;;;;5016807;28;20206;-72
2022/10/16 04:30:05;;;;;;;0.80;0.80;;;18.20;99.90;;;;;;5017531;28;20195;-72
2022/10/16 04:32:30;;;;;;;0.80;0.80;;;18.20;99.90;;;;;;5017340;28;20191;-72
2022/10/16 04:34:56;;;;;;;0.90;0.80;;;18.20;99.90;;;;;;5017149;28;20187;-72
2022/10/16 04:37:27;;;;;;;0.80;0.77;;;18.20;99.90;;;;;;5033296;28;20243;-71
2022/10/16 04:39:55;;;;;;;0.90;0.90;;;18.20;99.90;;;;;;5033472;28;20596;-71
2022/10/16 04:42:21;;;;;;;0.63;0.63;;;18.20;99.90;;;;;;5015830;28;20194;-71
2022/10/16 04:44:47;;;;;;;0.93;0.77;;;18.20;99.90;;;;;;5017117;28;20179;-71
2022/10/16 04:47:13;;;;;;;1.02;0.90;;;18.20;99.90;;;;;;5016731;28;20231;-71
2022/10/16 04:49:39;;;;;;;0.70;0.70;;;18.20;99.90;;;;;;5016897;28;20206;-71
2022/10/16 04:52:05;;;;;;;1.10;0.73;;;18.20;99.90;;;;;;5017246;28;20190;-71
2022/10/16 04:54:31;;;;;;;1.17;0.70;;;18.20;99.90;;;;;;5034405;28;20249;-72
2022/10/16 04:56:57;;;;;;;0.70;0.70;;;18.20;99.90;;;;;;5000485;28;20203;-72
2022/10/16 04:59:23;;;;;;;1.30;0.63;;;18.20;99.90;;;;;;5016389;28;20183;-72
2022/10/16 05:01:49;;;;;;;0.70;0.70;;;18.20;99.90;;;;;;5016578;28;20227;-72
2022/10/16 05:04:16;;;;;;;1.00;0.80;;;18.20;99.90;;;;;;5033022;28;20286;-71
2022/10/16 05:06:42;;;;;;;1.42;0.85;;;18.20;99.90;;;;;;5000003;28;20215;-72
2022/10/16 05:09:09;;;;;;;0.77;0.77;;;18.20;99.90;;;;;;5032783;28;20267;-71
2022/10/16 05:11:35;;;;;;;1.08;0.90;;;18.20;99.90;;;;;;5016490;28;20258;-71
2022/10/16 05:14:01;;;;;;;0.98;0.90;;;18.20;99.90;;;;;;5016583;28;20191;-72
2022/10/16 05:16:27;;;;;;;1.15;0.90;;;18.20;99.90;;;;;;5016269;28;20242;-71
2022/10/16 05:18:53;;;;;;;0.70;0.70;;;18.20;99.90;;;;;;5016213;28;20265;-71
2022/10/16 05:21:20;;;;;;;0.75;0.73;;;18.20;99.90;;;;;;5016518;28;20658;-71
2022/10/16 05:23:45;;;;;;;0.80;0.80;;;18.20;99.90;;;;;;5016110;28;20188;-72
2022/10/16 05:26:11;;;;;;;0.80;0.80;;;18.20;99.90;;;;;;4999883;28;20265;-72
2022/10/16 05:28:37;;;;;;;0.88;0.70;;;18.20;99.90;;;;;;4999496;28;20240;-72
2022/10/16 05:31:09;;;;;;;0.65;0.65;;;18.20;99.90;;;;;;5015939;28;20279;-72
2022/10/16 05:33:35;;;;;;;0.88;0.88;;;18.30;99.90;;;;;;5016134;28;20259;-71
2022/10/16 05:36:07;;;;;;;1.70;1.00;;;18.20;99.90;;;;;;5015713;28;20278;-72
2022/10/16 05:38:34;;;;;;;0.70;0.70;;;18.20;99.90;;;;;;5032357;28;20211;-72
2022/10/16 05:41:00;;;;;;;0.80;0.80;;;18.20;99.90;;;;;;5033560;28;20218;-71
2022/10/16 05:43:28;;;;;;;0.85;0.80;;;18.20;99.90;;;;;;5033377;28;20183;-71
2022/10/16 05:46:04;;;;;;;0.70;0.70;;;18.20;99.90;;;;;;5015974;28;20254;-71
2022/10/16 05:48:30;;;;;;;2.05;1.25;;;18.20;99.90;;;;;;5015666;28;20206;-71
2022/10/16 05:51:03;;;;;;;0.80;0.70;;;18.20;99.90;;;;;;5032036;28;20179;-72
2022/10/16 05:53:31;;;;;;;0.95;0.93;;;18.20;99.90;;;;;;5015402;28;20167;-72
2022/10/16 05:55:57;;;;;;;2.13;1.70;;;18.20;99.90;;;;;;5015720;28;20187;-72
2022/10/16 05:58:25;;;;;;;1.67;1.58;;;18.20;99.90;;;;;;5015274;28;20690;-71
2022/10/16 06:01:01;;;;;;;1.60;1.50;;;18.20;99.90;;;;;;4999108;28;20198;-72
2022/10/16 06:03:27;;;;;;;2.90;1.63;;;18.20;99.90;;;;;;5015381;28;20228;-72
2022/10/16 06:05:53;;;;;;;1.88;1.58;;;18.20;99.90;;;;;;5015486;28;20207;-72
2022/10/16 06:08:22;;;;;;;1.48;1.20;;;18.20;99.90;;;;;;5015495;28;20215;-71
2022/10/16 06:10:59;;;;;;;1.55;1.40;;;18.20;99.90;;;;;;5015476;28;20172;-72
2022/10/16 06:13:25;;;;;;;1.60;1.50;;;18.20;99.90;;;;;;5032918;28;20182;-72
2022/10/16 06:15:51;;;;;;;1.50;1.30;;;18.20;99.90;;;;;;5032851;28;20186;-72
2022/10/16 06:18:16;;;;;;;1.60;1.48;;;18.20;99.90;;;;;;5031430;28;20207;-72
2022/10/16 06:20:42;;;;;;;2.72;1.60;;;18.20;99.90;;;;;;5015564;28;20278;-72
2022/10/16 06:23:08;;;;;;;1.50;1.40;;;18.20;99.90;;;;;;5015064;28;20199;-71
2022/10/16 06:25:34;;;;;;;1.40;1.30;;;18.20;99.90;;;;;;5015026;28;20254;-71
2022/10/16 06:27:59;;;;;;;1.63;1.30;;;18.20;99.90;;;;;;5031512;28;20257;-72
2022/10/16 06:30:25;;;;;;;1.30;1.23;;;18.20;99.90;;;;;;5032686;28;20184;-71
2022/10/16 06:32:51;;;;;;;2.15;1.55;;;18.20;99.90;;;;;;5032567;28;20183;-72
2022/10/16 06:35:16;;;;;;;2.05;1.63;;;18.20;99.90;;;;;;5015002;28;20262;-72
2022/10/16 06:37:42;;;;;;;1.50;1.40;;;18.20;99.90;;;;;;5014829;28;20203;-71
2022/10/16 06:40:08;;;;;;;1.60;1.33;;;18.20;99.90;;;;;;5011902;28;20612;-71
2022/10/16 06:42:34;;;;;;;1.73;1.58;;;18.20;99.90;;;;;;5012755;28;20648;-72
2022/10/16 06:44:59;;;;;;;1.42;1.33;;;18.20;99.90;;;;;;4995154;28;20219;-71
2022/10/16 06:47:25;;;;;;;1.40;1.30;;;18.20;99.90;;;;;;4994746;28;20591;-71
2022/10/16 06:49:51;;;;;;;1.20;1.10;;;18.20;99.90;;;;;;4997831;28;20183;-71
2022/10/16 06:52:16;;;;;;;1.35;1.25;;;18.20;99.90;;;;;;4998583;28;20231;-72
2022/10/16 06:54:42;;;;;;;1.40;1.30;;;18.20;99.90;;;;;;5032478;28;20183;-71
2022/10/16 06:57:08;;;;;;;1.20;1.10;;;18.20;99.90;;;;;;5027072;28;20262;-71
2022/10/16 06:59:34;;;;;;;1.33;1.23;;;18.20;99.90;;;;;;4994833;28;20199;-71
2022/10/16 07:01:59;;;;;;;1.40;1.30;;;18.20;99.90;;;;;;5012572;28;20184;-72
2022/10/16 07:04:25;;;;;;;1.45;1.35;;;18.20;99.90;;;;;;4995380;28;20202;-71
2022/10/16 07:06:51;;;;;;;1.42;1.30;;;18.20;99.90;;;;;;4998189;28;20204;-71
2022/10/16 07:09:17;;;;;;;1.42;1.20;;;18.20;99.90;;;;;;4998950;28;20224;-72
2022/10/16 07:11:43;;;;;;;1.65;1.40;;;18.20;99.90;;;;;;4998903;28;20219;-71
2022/10/16 07:14:21;;;;;;;1.13;1.02;;;18.20;99.90;;;;;;4999204;28;20191;-71
2022/10/16 07:16:47;;;;;;;1.30;1.20;;;18.20;99.90;;;;;;5034874;28;20183;-71
2022/10/16 07:19:16;;;;;;;1.90;1.10;;;18.20;99.90;;;;;;5018361;28;20194;-72
2022/10/16 07:21:42;;;;;;;1.50;1.40;;;18.20;99.90;;;;;;5002191;28;20183;-72
2022/10/16 07:24:15;;;;;;;1.27;1.17;;;18.20;99.90;;;;;;5009892;28;20193;-72
2022/10/16 07:26:45;;;;;;;2.47;1.30;;;18.20;99.90;;;;;;5003064;28;20204;-72
2022/10/16 07:29:18;;;;;;;1.40;1.30;;;18.20;99.90;;;;;;5003934;28;20191;-71
2022/10/16 07:31:45;;;;;;;1.38;1.10;;;18.20;99.90;;;;;;5001879;28;20191;-71
2022/10/16 07:34:13;;;;;;;1.20;1.10;;;18.20;99.90;;;;;;5022043;28;20192;-72
2022/10/16 07:36:39;;;;;;;1.20;1.10;;;18.20;99.90;;;;;;5007813;28;20217;-72
2022/10/16 07:39:06;;;;;;;1.38;1.27;;;18.20;99.90;;;;;;5001885;28;20187;-71
2022/10/16 07:41:32;;;;;;;0.90;0.90;;;18.20;99.90;;;;;;5018179;28;20326;-71
2022/10/16 07:44:01;;;;;;;1.27;1.00;;;18.20;99.90;;;;;;5035635;28;20183;-73
2022/10/16 07:46:28;;;;;;;1.30;1.10;;;18.20;99.90;;;;;;5017904;28;20207;-73
2022/10/16 07:48:54;;;;;;;2.25;1.25;;;18.20;99.90;;;;;;5017866;28;20207;-73
2022/10/16 07:51:23;;;;;;;1.27;1.17;;;18.20;99.90;;;;;;5018134;28;20184;-74
2022/10/16 07:53:49;;;;;;;1.20;1.10;;;18.20;99.90;;;;;;5001591;28;20179;-73
2022/10/16 07:56:17;;;;;;;1.63;1.10;;;18.20;99.90;;;;;;5001566;28;20245;-73
2022/10/16 07:58:44;;;;;;;1.42;1.30;;;18.20;99.90;;;;;;5017654;28;20217;-73
2022/10/16 08:01:13;;;;;;;0.93;0.93;;;18.20;99.90;;;;;;5001471;28;20241;-73
2022/10/16 08:03:46;;;;;;;1.15;1.05;;;18.30;99.90;;;;;;5001406;28;20197;-73
2022/10/16 08:06:11;;;;;;;1.23;1.13;;;18.30;99.90;;;;;;5017969;28;20265;-73
2022/10/16 08:08:37;;;;;;;1.45;1.30;;;18.20;99.90;;;;;;5017420;28;20199;-73
2022/10/16 08:11:03;;;;;;;1.20;1.10;;;18.30;99.90;;;;;;5017619;28;20190;-73
2022/10/16 08:13:31;;;;;;;1.05;1.05;;;18.30;99.90;;;;;;5001583;28;20234;-73
2022/10/16 08:15:57;;;;;;;1.10;1.00;;;18.20;99.90;;;;;;5017769;28;20218;-73
2022/10/16 08:18:23;;;;;;;1.35;1.25;;;18.30;99.90;;;;;;5000817;28;20644;-73
2022/10/16 08:20:57;;;;;;;1.30;1.20;;;18.30;99.90;;;;;;5035273;28;20237;-73
2022/10/16 08:23:25;;;;;;;1.20;1.10;;;18.30;99.90;;;;;;5017328;28;20187;-73
2022/10/16 08:25:53;;;;;;;2.10;1.42;;;18.30;99.90;;;;;;5017385;28;20226;-73
2022/10/16 08:28:19;;;;;;;1.30;1.20;;;18.30;99.90;;;;;;5016997;28;20230;-72
2022/10/16 08:30:45;;;;;;;2.05;1.25;;;18.20;99.90;;;;;;5017244;28;20217;-73
2022/10/16 08:33:11;;;;;;;1.00;0.80;;;18.30;99.90;;;;;;5017177;28;20274;-72
2022/10/16 08:35:37;;;;;;;0.95;0.90;;;18.20;99.90;;;;;;5017446;28;20202;-72
2022/10/16 08:38:04;;;;;;;1.40;1.20;;;18.20;99.90;;;;;;5016736;28;20293;-71
2022/10/16 08:40:34;;;;;;;1.23;1.13;;;18.30;99.90;;;;;;5016980;28;20187;-72
2022/10/16 08:43:34;;;;;;;1.90;1.23;;;18.30;99.90;;;;;;5016724;28;20191;-72
2022/10/16 08:46:18;;;;;;;1.17;1.08;;;18.30;99.90;;;;;;5016000;28;20253;-73
2022/10/16 08:48:50;;;;;;;1.40;1.00;;;18.30;99.90;;;;;;4999996;28;20257;-73
2022/10/16 08:51:29;;;;;;;1.25;1.10;;;18.30;99.90;;;;;;5022715;23;20239;-68
2022/10/16 08:54:04;;;;;;;0.90;0.90;;;18.30;99.90;;;;;;4997114;28;20190;-67
2022/10/16 08:56:30;;;;;;;1.05;1.00;;;18.30;99.90;;;;;;5020104;28;20207;-68
2022/10/16 08:58:59;;;;;;;0.90;0.90;;;18.30;99.90;;;;;;5019916;28;20242;-68
2022/10/16 09:01:44;;;;;;;1.08;1.00;;;18.30;99.90;;;;;;5016505;28;20208;-68
2022/10/16 09:04:54;;;;;;;0.95;0.95;;;18.30;99.90;;;;;;5000365;28;20241;-68
2022/10/16 09:07:55;;;;;;;1.30;1.20;;;18.30;99.90;;;;;;5016414;28;20207;-67
2022/10/16 09:10:51;;;;;;;1.27;1.17;;;18.30;99.90;;;;;;5016653;28;20206;-68
2022/10/16 09:13:47;;;;;;;1.02;1.02;;;18.30;99.90;;;;;;5016517;28;20591;-68
2022/10/16 09:16:22;;;;;;;1.17;1.08;;;18.30;99.90;;;;;;5016308;28;20255;-67
2022/10/16 09:19:22;;;;;;;1.70;1.20;;;18.30;99.90;;;;;;5016114;28;20215;-68
2022/10/16 09:21:48;;;;;;;1.17;1.10;;;18.30;99.90;;;;;;4999893;28;20186;-67
2022/10/16 09:24:21;;;;;;;1.15;1.00;;;18.30;99.90;;;;;;5016099;28;20179;-68
2022/10/16 09:26:47;;;;;;;0.95;0.95;;;18.30;99.90;;;;;;4999737;28;20625;-68
2022/10/16 09:29:16;;;;;;;1.30;1.08;;;18.30;99.90;;;;;;4998942;28;20237;-68
2022/10/16 09:31:43;;;;;;;1.10;1.00;;;18.30;99.90;;;;;;5033657;28;20191;-68
2022/10/16 09:34:28;;;;;;;1.08;0.98;;;18.40;99.90;;;;;;5016182;28;20183;-67
2022/10/16 09:36:56;;;;;;;1.10;1.00;;;18.30;99.90;;;;;;4999897;28;20197;-68
2022/10/16 09:39:22;;;;;;;2.70;1.30;;;18.30;99.90;;;;;;5033277;28;20237;-68
2022/10/16 09:41:49;;;;;;;0.90;0.90;;;18.30;99.90;;;;;;4997220;28;20614;-68
2022/10/16 09:44:26;;;;;;;1.17;1.08;;;18.30;99.90;;;;;;5012534;28;20187;-68
2022/10/16 09:47:13;;;;;;;1.73;1.10;;;18.30;99.90;;;;;;4991370;28;20211;-68
2022/10/16 09:49:51;;;;;;;1.00;0.90;;;18.30;99.90;;;;;;4995525;28;20200;-68
2022/10/16 09:52:19;;;;;;;1.73;1.00;;;18.40;99.90;;;;;;5012369;28;20702;-68
2022/10/16 09:54:54;;;;;;;2.00;1.20;;;18.30;99.90;;;;;;5013546;28;20208;-67
2022/10/16 09:57:22;;;;;;;1.73;1.20;;;18.30;99.90;;;;;;5012278;28;20198;-68
2022/10/16 09:59:54;;;;;;;1.63;1.10;;;18.40;99.90;;;;;;5012000;28;20212;-68
2022/10/16 10:02:44;;;;;;;0.70;0.70;;;18.40;99.90;;;;;;4988206;28;20311;-68
2022/10/16 10:05:25;;;;;;;2.35;1.00;;;18.40;99.90;;;;;;4975988;28;20188;-68
2022/10/16 10:08:00;;;;;;;1.67;1.20;;;18.40;99.90;;;;;;4992522;28;20207;-68
2022/10/16 10:10:30;;;;;;;2.05;1.00;;;18.40;99.90;;;;;;4992300;28;20211;-68
2022/10/16 10:12:56;;;;;;;1.58;1.23;;;18.40;99.90;;;;;;4976342;28;20196;-67
2022/10/16 10:15:24;;;;;;;1.13;1.00;;;18.40;99.90;;;;;;4993340;28;20205;-68
2022/10/16 10:17:54;;;;;;;1.58;1.00;;;18.40;99.90;;;;;;4975813;28;20637;-67
2022/10/16 10:20:34;;;;;;;3.05;1.20;;;18.40;99.90;;;;;;4992292;28;20209;-68
2022/10/16 10:23:18;;;;;;;2.83;1.20;;;18.40;99.90;;;;;;4992601;28;20188;-67
2022/10/16 10:26:23;;;;;;;2.80;1.02;;;18.40;99.90;;;;;;4993329;28;20193;-68
2022/10/16 10:29:04;;;;;;;1.20;0.93;;;18.40;99.90;;;;;;4992525;28;20262;-68
2022/10/16 10:31:49;;;;;;;2.63;0.85;;;18.40;99.90;;;;;;4975811;28;20215;-68
2022/10/16 10:34:43;;;;;;;2.15;1.10;;;18.40;99.90;;;;;;4975945;28;20177;-68
2022/10/16 10:37:33;;;;;;;2.10;1.25;;;18.40;99.90;;;;;;4976174;28;20284;-68
2022/10/16 10:40:46;;;;;;;2.17;1.23;;;18.40;99.90;;;;;;5006522;28;20688;-68
2022/10/16 10:43:31;;;;;;;1.02;0.93;;;18.40;99.90;;;;;;4979432;28;20191;-69
2022/10/16 10:46:05;;;;;;;1.00;1.00;;;18.40;99.90;;;;;;4980237;28;20706;-68
2022/10/16 10:49:16;;;;;;;1.40;1.20;;;18.40;99.90;;;;;;5003538;28;20202;-69
2022/10/16 10:52:18;;;;;;;1.20;1.08;;;18.40;99.90;;;;;;4975997;28;20224;-68
2022/10/16 10:54:52;;;;;;;1.25;1.00;;;18.40;99.90;;;;;;5003576;28;20258;-68
2022/10/16 10:57:38;;;;;;;2.03;1.10;;;18.40;99.90;;;;;;4995618;28;20246;-68
2022/10/16 11:00:28;;;;;;;1.52;0.95;;;18.40;99.90;;;;;;5002923;28;20204;-67
2022/10/16 11:03:42;;;;;;;3.20;1.10;;;18.40;99.90;;;;;;5012717;28;20214;-68
2022/10/16 11:06:24;;;;;;;1.80;1.35;;;18.40;99.90;;;;;;4978921;28;20290;-68
2022/10/16 11:09:17;;;;;;;8.02;5.00;;;18.40;99.90;;;;;;5004519;28;20690;-68
2022/10/16 11:11:55;;;;;;;5.75;3.92;;;18.40;99.90;;;;;;5031577;28;20234;-68
2022/10/16 11:15:04;;;;;;;4.88;3.22;;;18.40;99.90;;;;;;5006781;28;20229;-67
2022/10/16 11:17:38;;;;;;;6.15;2.40;;;18.40;99.90;;;;;;4983761;28;20227;-68
2022/10/16 11:20:19;;;;;;;2.72;2.10;;;18.40;99.90;;;;;;5007451;28;20233;-68
2022/10/16 11:22:51;;;;;;;2.90;2.05;;;18.40;99.90;;;;;;4997080;28;20275;-68
2022/10/16 11:25:31;;;;;;;2.10;1.70;;;18.40;99.90;;;;;;4995380;28;20223;-68
2022/10/16 11:28:13;;;;;;;3.25;1.90;;;18.40;99.90;;;;;;5020018;28;20208;-68
2022/10/16 11:30:51;;;;;;;5.85;2.25;;;18.40;99.90;;;;;;5011370;28;20270;-68
2022/10/16 11:33:34;;;;;;;3.92;2.45;;;18.40;99.90;;;;;;5031946;28;20194;-68
2022/10/16 11:36:18;;;;;;;3.78;1.90;;;18.40;99.90;;;;;;5030826;28;20191;-68
2022/10/16 11:38:58;;;;;;;3.15;1.92;;;18.40;99.90;;;;;;5014245;28;20625;-68
2022/10/16 11:41:29;;;;;;;2.65;1.80;;;18.40;99.90;;;;;;5030738;28;20257;-69
2022/10/16 11:44:54;;;;;;;4.15;1.92;;;18.40;99.90;;;;;;5026321;28;20191;-68
2022/10/16 11:47:51;;;;;;;2.75;1.67;;;18.40;99.90;;;;;;4990555;28;20240;-68
2022/10/16 11:50:45;;;;;;;3.08;1.95;;;18.40;99.90;;;;;;4974943;28;20213;-68
2022/10/16 11:53:46;;;;;;;3.92;2.00;;;18.40;99.90;;;;;;4978828;28;20176;-68
2022/10/16 11:56:17;;;;;;;2.53;1.92;;;18.40;99.90;;;;;;4978830;28;20188;-68
2022/10/16 11:58:54;;;;;;;3.05;1.80;;;18.40;99.90;;;;;;4978457;28;20189;-68
2022/10/16 12:01:38;;;;;;;2.20;1.75;;;18.40;99.90;;;;;;4978563;28;20213;-68
2022/10/16 12:04:33;;;;;;;3.67;1.80;;;18.50;99.90;;;;;;4962474;28;20199;-68
2022/10/16 12:07:30;;;;;;;2.72;2.03;;;18.40;99.90;;;;;;4978499;28;20211;-68
2022/10/16 12:10:00;;;;;;;3.05;1.65;;;18.50;99.90;;;;;;4978307;28;20623;-68
2022/10/16 12:12:39;;;;;;;3.97;1.98;;;18.50;99.90;;;;;;4978697;28;20192;-68
2022/10/16 12:15:29;;;;;;;4.03;1.88;;;18.50;99.90;;;;;;5022254;28;20191;-67
2022/10/16 12:17:55;;;;;;;3.88;2.08;;;18.50;99.90;;;;;;5015291;28;20223;-68
2022/10/16 12:20:36;;;;;;;3.30;1.75;;;18.40;99.90;;;;;;5014307;28;20207;-68
2022/10/16 12:23:05;;;;;;;2.30;1.67;;;18.50;99.90;;;;;;4997787;28;20698;-68
2022/10/16 12:25:45;;;;;;;2.13;1.85;;;18.50;99.90;;;;;;4981378;28;20203;-68
2022/10/16 12:28:14;;;;;;;2.55;1.60;;;18.40;99.90;;;;;;4981553;28;20203;-68
2022/10/16 12:30:43;;;;;;;2.28;1.75;;;18.50;99.90;;;;;;5014958;28;20204;-67
2022/10/16 12:33:27;;;;;;;3.83;1.80;;;18.50;99.90;;;;;;4981584;28;20192;-68
2022/10/16 12:35:56;;;;;;;2.42;1.60;;;18.50;99.90;;;;;;4997555;28;20242;-68
2022/10/16 12:38:28;;;;;;;2.30;1.77;;;18.50;99.90;;;;;;5013739;28;20188;-68
2022/10/16 12:41:08;;;;;;;2.72;1.88;;;18.50;99.90;;;;;;4981171;28;20208;-69
2022/10/16 12:43:46;;;;;;;2.05;1.80;;;18.50;99.90;;;;;;5023055;28;20278;-68
2022/10/16 12:46:11;;;;;;;2.70;1.52;;;18.50;99.90;;;;;;5020145;28;20207;-68
2022/10/16 12:48:41;;;;;;;2.88;1.67;;;18.50;99.90;;;;;;5034645;28;20670;-67
2022/10/16 12:51:33;;;;;;;2.03;1.45;;;18.50;99.90;;;;;;5033226;28;20203;-68
2022/10/16 12:54:07;;;;;;;3.15;1.70;;;18.50;99.90;;;;;;5034563;28;20179;-68
2022/10/16 12:57:03;;;;;;;2.30;1.67;;;18.50;99.90;;;;;;5034381;28;20227;-68
2022/10/16 12:59:48;;;;;;;3.08;1.70;;;18.50;99.90;;;;;;5016491;28;20179;-68
2022/10/16 13:02:57;;;;;;;1.95;1.65;;;18.50;99.90;;;;;;5032979;28;20229;-68
2022/10/16 13:05:54;;;;;;;4.40;1.55;;;18.50;99.90;;;;;;5000414;28;20191;-68
2022/10/16 13:08:27;;;;;;;1.70;1.33;;;18.50;99.90;;;;;;5016236;28;20209;-68
2022/10/16 13:11:12;;;;;;;2.33;1.65;;;18.50;99.90;;;;;;5016535;28;20751;-68
2022/10/16 13:13:57;;;;;;;3.10;1.75;;;18.50;99.90;;;;;;5016075;28;20191;-68
2022/10/16 13:16:35;;;;;;;2.92;1.70;;;18.50;99.90;;;;;;4994963;28;20186;-68
2022/10/16 13:19:28;;;;;;;1.98;1.33;;;18.50;99.90;;;;;;5033810;28;20183;-68
2022/10/16 13:22:05;;;;;;;3.25;1.92;;;18.50;99.90;;;;;;4999743;28;20188;-68